TimeCST,TemperatureF,Dew PointF,Humidity,Sea Level PressureIn,VisibilityMPH,Wind Direction,Wind SpeedMPH,Gust SpeedMPH,PrecipitationIn,Events,Conditions,WindDirDegrees,DateUTC
12:16 AM,6.8,3.2,85,30.12,10.0,West,4.6,-,N/A,Snow,Light Snow,280,2012-11-26 06:16:00
12:36 AM,6.8,3.2,85,30.12,10.0,West,4.6,-,N/A,,Overcast,280,2012-11-26 06:36:00
12:57 AM,6.8,3.2,85,30.12,10.0,WNW,3.5,-,N/A,,Overcast,290,2012-11-26 06:57:00
1:16 AM,6.8,3.2,85,30.13,10.0,West,5.8,-,N/A,,Overcast,270,2012-11-26 07:16:00
1:36 AM,6.8,3.2,85,30.14,10.0,West,5.8,-,N/A,Snow,Light Snow,280,2012-11-26 07:36:00
1:57 AM,6.8,3.2,85,30.15,10.0,West,5.8,-,N/A,Snow,Light Snow,280,2012-11-26 07:57:00
2:16 AM,6.8,3.2,85,30.16,10.0,West,4.6,-,N/A,Snow,Light Snow,270,2012-11-26 08:16:00
2:36 AM,6.8,3.2,85,30.17,10.0,West,4.6,-,N/A,Snow,Light Snow,270,2012-11-26 08:36:00
2:57 AM,6.8,3.2,85,30.17,10.0,West,6.9,-,N/A,Snow,Light Snow,270,2012-11-26 08:57:00
3:16 AM,6.8,3.2,85,30.18,10.0,West,6.9,-,N/A,,Overcast,270,2012-11-26 09:16:00
3:36 AM,6.8,3.2,85,30.18,10.0,West,6.9,-,N/A,,Overcast,270,2012-11-26 09:36:00
3:57 AM,6.8,1.4,79,30.19,10.0,West,6.9,-,N/A,,Overcast,280,2012-11-26 09:57:00
4:16 AM,6.8,1.4,79,30.19,7.0,West,8.1,-,N/A,Snow,Light Snow,280,2012-11-26 10:16:00
4:36 AM,5.0,1.4,85,30.20,5.0,West,6.9,-,N/A,Snow,Light Snow,270,2012-11-26 10:36:00
4:57 AM,5.0,1.4,85,30.20,7.0,West,5.8,-,N/A,Snow,Light Snow,270,2012-11-26 10:57:00
5:16 AM,3.2,1.4,92,30.21,7.0,West,6.9,-,N/A,,Overcast,280,2012-11-26 11:16:00
5:36 AM,3.2,-0.4,85,30.21,7.0,West,6.9,-,N/A,,Overcast,280,2012-11-26 11:36:00
5:56 AM,3.2,-0.4,85,30.22,10.0,WNW,5.8,-,N/A,,Overcast,290,2012-11-26 11:56:00
6:16 AM,3.2,-0.4,85,30.22,10.0,WNW,6.9,-,N/A,,Overcast,290,2012-11-26 12:16:00
6:37 AM,3.2,-0.4,85,30.23,10.0,West,8.1,-,N/A,,Overcast,280,2012-11-26 12:37:00
6:56 AM,3.2,-0.4,85,30.24,10.0,West,4.6,-,N/A,,Overcast,280,2012-11-26 12:56:00
7:16 AM,1.4,-2.2,85,30.25,10.0,West,5.8,-,N/A,,Overcast,280,2012-11-26 13:16:00
7:37 AM,1.4,-2.2,85,30.26,10.0,West,9.2,-,N/A,,Overcast,260,2012-11-26 13:37:00
7:56 AM,-0.4,-4.0,85,30.26,10.0,West,6.9,-,N/A,,Overcast,270,2012-11-26 13:56:00
8:16 AM,-0.4,-4.0,85,30.27,7.0,West,5.8,-,N/A,Snow,Light Snow,270,2012-11-26 14:16:00
8:36 AM,-0.4,-4.0,85,30.28,5.0,West,8.1,-,N/A,Snow,Light Snow,270,2012-11-26 14:36:00
8:56 AM,-0.4,-4.0,85,30.28,5.0,West,6.9,-,N/A,,Overcast,260,2012-11-26 14:56:00
9:17 AM,-0.4,-5.8,78,30.28,5.0,West,5.8,-,N/A,,Haze,270,2012-11-26 15:17:00
9:36 AM,-0.4,-5.8,78,30.29,10.0,West,5.8,-,N/A,,Overcast,270,2012-11-26 15:36:00
9:56 AM,-0.4,-4.0,85,30.29,7.0,West,5.8,-,N/A,,Overcast,270,2012-11-26 15:56:00
10:17 AM,1.4,-2.2,85,30.29,10.0,West,5.8,-,N/A,,Overcast,260,2012-11-26 16:17:00
10:36 AM,3.2,-2.2,78,30.30,10.0,West,5.8,-,N/A,,Overcast,260,2012-11-26 16:36:00
10:56 AM,3.2,-2.2,78,30.30,10.0,West,4.6,-,N/A,,Overcast,280,2012-11-26 16:56:00
11:17 AM,5.0,-0.4,78,30.30,7.0,West,5.8,-,N/A,,Mostly Cloudy,260,2012-11-26 17:17:00
11:36 AM,6.8,-0.4,72,30.29,10.0,West,4.6,-,N/A,,Scattered Clouds,270,2012-11-26 17:36:00
11:56 AM,6.8,-0.4,72,30.29,10.0,West,4.6,-,N/A,,Clear,270,2012-11-26 17:56:00
12:17 PM,8.6,-0.4,67,30.29,10.0,West,6.9,-,N/A,,Clear,280,2012-11-26 18:17:00
12:36 PM,8.6,-0.4,67,30.29,10.0,West,6.9,-,N/A,,Clear,280,2012-11-26 18:36:00
12:56 PM,10.4,1.4,67,30.28,10.0,West,5.8,-,N/A,,Clear,270,2012-11-26 18:56:00
1:17 PM,10.4,1.4,67,30.27,10.0,West,4.6,-,N/A,,Clear,270,2012-11-26 19:17:00
1:36 PM,10.4,1.4,67,30.28,10.0,West,9.2,-,N/A,,Clear,270,2012-11-26 19:36:00
1:56 PM,10.4,1.4,67,30.27,10.0,West,5.8,-,N/A,,Clear,270,2012-11-26 19:56:00
2:17 PM,12.2,1.4,62,30.27,10.0,West,5.8,-,N/A,,Clear,270,2012-11-26 20:17:00
2:36 PM,12.2,3.2,67,30.27,10.0,West,9.2,-,N/A,,Clear,270,2012-11-26 20:36:00
2:57 PM,12.2,3.2,67,30.27,10.0,West,6.9,-,N/A,,Scattered Clouds,270,2012-11-26 20:57:00
3:16 PM,10.4,1.4,67,30.27,10.0,West,8.1,-,N/A,,Scattered Clouds,270,2012-11-26 21:16:00
3:36 PM,10.4,1.4,67,30.26,10.0,West,3.5,-,N/A,,Mostly Cloudy,270,2012-11-26 21:36:00
3:57 PM,10.4,1.4,67,30.26,10.0,West,3.5,-,N/A,,Mostly Cloudy,270,2012-11-26 21:57:00
4:16 PM,8.6,1.4,73,30.26,10.0,Calm,Calm,-,N/A,,Mostly Cloudy,0,2012-11-26 22:16:00
4:36 PM,8.6,1.4,73,30.25,10.0,Calm,Calm,-,N/A,,Mostly Cloudy,0,2012-11-26 22:36:00
4:57 PM,8.6,3.2,79,30.25,10.0,Calm,Calm,-,N/A,,Overcast,0,2012-11-26 22:57:00
5:16 PM,8.6,3.2,79,30.26,10.0,Calm,Calm,-,N/A,,Overcast,0,2012-11-26 23:16:00
5:36 PM,8.6,3.2,79,30.26,10.0,Calm,Calm,-,N/A,,Overcast,0,2012-11-26 23:36:00
5:57 PM,10.4,5.0,79,30.25,10.0,Calm,Calm,-,N/A,,Overcast,0,2012-11-26 23:57:00
6:16 PM,10.4,5.0,79,30.25,10.0,Calm,Calm,-,N/A,,Overcast,0,2012-11-27 00:16:00
6:36 PM,10.4,5.0,79,30.24,10.0,SW,3.5,-,N/A,Snow,Light Snow,220,2012-11-27 00:36:00
6:57 PM,10.4,6.8,85,30.22,7.0,South,3.5,-,N/A,Snow,Light Snow,170,2012-11-27 00:57:00
7:16 PM,10.4,6.8,85,30.22,10.0,SSW,3.5,-,N/A,Snow,Light Snow,200,2012-11-27 01:16:00
7:37 PM,10.4,6.8,85,30.21,10.0,SSW,3.5,-,N/A,,Overcast,200,2012-11-27 01:37:00
7:57 PM,10.4,6.8,85,30.21,10.0,Calm,Calm,-,N/A,Snow,Light Snow,0,2012-11-27 01:57:00
8:16 PM,12.2,6.8,79,30.21,10.0,Calm,Calm,-,N/A,Snow,Light Snow,0,2012-11-27 02:16:00
8:36 PM,12.2,6.8,79,30.21,10.0,SSW,3.5,-,N/A,,Overcast,210,2012-11-27 02:36:00
8:57 PM,12.2,6.8,79,30.20,10.0,Calm,Calm,-,N/A,Snow,Light Snow,0,2012-11-27 02:57:00
9:16 PM,12.2,6.8,79,30.20,10.0,Calm,Calm,-,N/A,,Overcast,0,2012-11-27 03:16:00
9:36 PM,12.2,8.6,85,30.18,7.0,South,3.5,-,N/A,Snow,Light Snow,170,2012-11-27 03:36:00
9:57 PM,12.2,8.6,85,30.17,3.0,South,3.5,-,N/A,Snow,Light Snow,180,2012-11-27 03:57:00
10:16 PM,12.2,8.6,85,30.17,10.0,South,3.5,-,N/A,Snow,Light Snow,180,2012-11-27 04:16:00
10:36 PM,12.2,8.6,85,30.16,3.0,South,5.8,-,N/A,Snow,Light Snow,180,2012-11-27 04:36:00
10:57 PM,14.0,8.6,79,30.16,10.0,South,5.8,-,N/A,,Overcast,190,2012-11-27 04:57:00
11:16 PM,14.0,8.6,79,30.15,10.0,SSW,6.9,-,N/A,,Overcast,200,2012-11-27 05:16:00
11:37 PM,14.0,10.4,86,30.15,10.0,SSW,5.8,-,N/A,,Overcast,200,2012-11-27 05:37:00
11:57 PM,14.0,8.6,79,30.14,10.0,SSW,5.8,-,N/A,,Overcast,200,2012-11-27 05:57:00